sensor_id;sensor_type;location;lat;lon;timestamp;temperature;humidity
14604;DHT22;7388;51.078;13.740;2022-12-07T00:00:43;7.50;50.20
14604;DHT22;7388;51.078;13.740;2022-12-07T00:03:09;7.50;49.90
14604;DHT22;7388;51.078;13.740;2022-12-07T00:05:34;7.40;50.00
14604;DHT22;7388;51.078;13.740;2022-12-07T00:08:00;7.40;50.10
14604;DHT22;7388;51.078;13.740;2022-12-07T00:10:26;7.50;50.20
14604;DHT22;7388;51.078;13.740;2022-12-07T00:12:51;7.50;50.20
14604;DHT22;7388;51.078;13.740;2022-12-07T00:15:17;7.50;50.10
14604;DHT22;7388;51.078;13.740;2022-12-07T00:17:43;7.50;49.90
14604;DHT22;7388;51.078;13.740;2022-12-07T00:20:09;7.40;49.70
14604;DHT22;7388;51.078;13.740;2022-12-07T00:22:35;7.40;49.90
14604;DHT22;7388;51.078;13.740;2022-12-07T00:25:00;7.40;49.40
14604;DHT22;7388;51.078;13.740;2022-12-07T00:27:27;7.40;49.70
14604;DHT22;7388;51.078;13.740;2022-12-07T00:29:52;7.40;49.60
14604;DHT22;7388;51.078;13.740;2022-12-07T00:32:18;7.30;49.80
14604;DHT22;7388;51.078;13.740;2022-12-07T00:34:44;7.30;49.70
14604;DHT22;7388;51.078;13.740;2022-12-07T00:37:10;7.30;49.60
14604;DHT22;7388;51.078;13.740;2022-12-07T00:39:35;7.30;49.80
14604;DHT22;7388;51.078;13.740;2022-12-07T00:42:01;7.30;49.70
14604;DHT22;7388;51.078;13.740;2022-12-07T00:44:27;7.30;49.50
14604;DHT22;7388;51.078;13.740;2022-12-07T00:46:52;7.30;49.70
14604;DHT22;7388;51.078;13.740;2022-12-07T00:49:18;7.30;49.60
14604;DHT22;7388;51.078;13.740;2022-12-07T00:51:44;7.40;49.60
14604;DHT22;7388;51.078;13.740;2022-12-07T00:54:09;7.40;49.20
14604;DHT22;7388;51.078;13.740;2022-12-07T00:56:35;7.40;49.20
14604;DHT22;7388;51.078;13.740;2022-12-07T00:59:03;7.40;49.20
14604;DHT22;7388;51.078;13.740;2022-12-07T01:01:31;7.40;49.20
14604;DHT22;7388;51.078;13.740;2022-12-07T01:03:57;7.40;49.10
14604;DHT22;7388;51.078;13.740;2022-12-07T01:06:25;7.40;49.10
14604;DHT22;7388;51.078;13.740;2022-12-07T01:08:51;7.40;49.30
14604;DHT22;7388;51.078;13.740;2022-12-07T01:11:20;7.40;49.40
14604;DHT22;7388;51.078;13.740;2022-12-07T01:13:46;7.50;49.50
14604;DHT22;7388;51.078;13.740;2022-12-07T01:16:14;7.50;49.40
14604;DHT22;7388;51.078;13.740;2022-12-07T01:18:41;7.60;49.30
14604;DHT22;7388;51.078;13.740;2022-12-07T01:21:11;7.60;49.10
14604;DHT22;7388;51.078;13.740;2022-12-07T01:23:37;7.60;49.10
14604;DHT22;7388;51.078;13.740;2022-12-07T01:26:06;7.60;49.10
14604;DHT22;7388;51.078;13.740;2022-12-07T01:28:33;7.60;49.10
14604;DHT22;7388;51.078;13.740;2022-12-07T01:31:01;7.60;48.30
14604;DHT22;7388;51.078;13.740;2022-12-07T01:33:29;7.60;48.60
14604;DHT22;7388;51.078;13.740;2022-12-07T01:36:04;7.50;48.60
14604;DHT22;7388;51.078;13.740;2022-12-07T01:38:31;7.50;48.90
14604;DHT22;7388;51.078;13.740;2022-12-07T01:40:59;7.50;48.90
14604;DHT22;7388;51.078;13.740;2022-12-07T01:43:27;7.50;48.80
14604;DHT22;7388;51.078;13.740;2022-12-07T01:45:54;7.50;48.70
14604;DHT22;7388;51.078;13.740;2022-12-07T01:51:04;7.50;48.80
14604;DHT22;7388;51.078;13.740;2022-12-07T01:53:32;7.50;48.80
14604;DHT22;7388;51.078;13.740;2022-12-07T01:56:01;7.50;48.80
14604;DHT22;7388;51.078;13.740;2022-12-07T01:58:26;7.60;48.80
14604;DHT22;7388;51.078;13.740;2022-12-07T02:00:53;7.50;48.80
14604;DHT22;7388;51.078;13.740;2022-12-07T02:03:21;7.60;48.40
14604;DHT22;7388;51.078;13.740;2022-12-07T02:05:49;7.50;48.70
14604;DHT22;7388;51.078;13.740;2022-12-07T02:08:16;7.60;48.80
14604;DHT22;7388;51.078;13.740;2022-12-07T02:10:42;7.50;48.30
14604;DHT22;7388;51.078;13.740;2022-12-07T02:13:13;7.40;48.60
14604;DHT22;7388;51.078;13.740;2022-12-07T02:15:59;7.40;48.60
14604;DHT22;7388;51.078;13.740;2022-12-07T02:23:56;7.10;48.40
14604;DHT22;7388;51.078;13.740;2022-12-07T02:29:39;7.00;48.60
14604;DHT22;7388;51.078;13.740;2022-12-07T02:35:07;7.00;48.50
14604;DHT22;7388;51.078;13.740;2022-12-07T02:38:00;7.00;48.40
14604;DHT22;7388;51.078;13.740;2022-12-07T02:43:23;6.90;48.30
14604;DHT22;7388;51.078;13.740;2022-12-07T02:45:52;6.90;48.20
14604;DHT22;7388;51.078;13.740;2022-12-07T02:48:19;6.90;48.20
14604;DHT22;7388;51.078;13.740;2022-12-07T02:50:51;6.80;48.10
14604;DHT22;7388;51.078;13.740;2022-12-07T02:56:06;6.90;48.20
14604;DHT22;7388;51.078;13.740;2022-12-07T03:07:07;7.00;47.90
14604;DHT22;7388;51.078;13.740;2022-12-07T03:09:43;7.00;47.90
14604;DHT22;7388;51.078;13.740;2022-12-07T03:12:14;7.00;47.80
14604;DHT22;7388;51.078;13.740;2022-12-07T03:14:47;7.00;47.80
14604;DHT22;7388;51.078;13.740;2022-12-07T03:17:24;7.00;47.90
14604;DHT22;7388;51.078;13.740;2022-12-07T03:19:52;7.00;47.90
14604;DHT22;7388;51.078;13.740;2022-12-07T03:22:19;7.00;47.80
14604;DHT22;7388;51.078;13.740;2022-12-07T03:24:50;7.00;47.70
14604;DHT22;7388;51.078;13.740;2022-12-07T03:27:51;6.90;47.60
14604;DHT22;7388;51.078;13.740;2022-12-07T03:30:23;6.90;47.50
14604;DHT22;7388;51.078;13.740;2022-12-07T03:33:12;6.90;47.50
14604;DHT22;7388;51.078;13.740;2022-12-07T03:35:45;6.80;47.30
14604;DHT22;7388;51.078;13.740;2022-12-07T03:41:28;6.60;47.30
14604;DHT22;7388;51.078;13.740;2022-12-07T03:43:56;6.60;47.40
14604;DHT22;7388;51.078;13.740;2022-12-07T03:52:06;6.50;47.70
14604;DHT22;7388;51.078;13.740;2022-12-07T03:57:13;6.50;47.60
14604;DHT22;7388;51.078;13.740;2022-12-07T03:59:40;6.40;47.60
14604;DHT22;7388;51.078;13.740;2022-12-07T04:02:07;6.40;47.70
14604;DHT22;7388;51.078;13.740;2022-12-07T04:04:33;6.40;47.60
14604;DHT22;7388;51.078;13.740;2022-12-07T04:06:59;6.40;47.60
14604;DHT22;7388;51.078;13.740;2022-12-07T04:09:27;6.40;47.70
14604;DHT22;7388;51.078;13.740;2022-12-07T04:11:52;6.40;47.70
14604;DHT22;7388;51.078;13.740;2022-12-07T04:14:18;6.40;47.70
14604;DHT22;7388;51.078;13.740;2022-12-07T04:16:52;6.40;47.70
14604;DHT22;7388;51.078;13.740;2022-12-07T04:19:20;6.40;47.60
14604;DHT22;7388;51.078;13.740;2022-12-07T04:21:47;6.30;47.60
14604;DHT22;7388;51.078;13.740;2022-12-07T04:24:14;6.30;47.50
14604;DHT22;7388;51.078;13.740;2022-12-07T04:26:40;6.30;47.40
14604;DHT22;7388;51.078;13.740;2022-12-07T04:29:06;6.30;47.30
14604;DHT22;7388;51.078;13.740;2022-12-07T04:31:32;6.20;47.20
14604;DHT22;7388;51.078;13.740;2022-12-07T04:33:57;6.20;47.40
14604;DHT22;7388;51.078;13.740;2022-12-07T04:36:23;6.20;47.30
14604;DHT22;7388;51.078;13.740;2022-12-07T04:38:49;6.20;47.50
14604;DHT22;7388;51.078;13.740;2022-12-07T04:41:15;6.20;47.50
14604;DHT22;7388;51.078;13.740;2022-12-07T04:43:40;6.20;47.50
14604;DHT22;7388;51.078;13.740;2022-12-07T04:46:06;6.30;47.40
14604;DHT22;7388;51.078;13.740;2022-12-07T04:48:32;6.20;47.40
14604;DHT22;7388;51.078;13.740;2022-12-07T04:50:58;6.30;47.40
14604;DHT22;7388;51.078;13.740;2022-12-07T04:53:23;6.30;47.30
14604;DHT22;7388;51.078;13.740;2022-12-07T04:55:49;6.30;47.00
14604;DHT22;7388;51.078;13.740;2022-12-07T04:58:15;6.20;46.90
14604;DHT22;7388;51.078;13.740;2022-12-07T05:00:41;6.20;46.80
14604;DHT22;7388;51.078;13.740;2022-12-07T05:03:07;6.20;46.80
14604;DHT22;7388;51.078;13.740;2022-12-07T05:05:33;6.20;46.70
14604;DHT22;7388;51.078;13.740;2022-12-07T05:07:58;6.10;46.80
14604;DHT22;7388;51.078;13.740;2022-12-07T05:10:24;6.10;46.90
14604;DHT22;7388;51.078;13.740;2022-12-07T05:12:50;6.00;46.80
14604;DHT22;7388;51.078;13.740;2022-12-07T05:15:16;6.00;46.80
14604;DHT22;7388;51.078;13.740;2022-12-07T05:17:42;6.00;46.80
14604;DHT22;7388;51.078;13.740;2022-12-07T05:20:08;6.00;46.70
14604;DHT22;7388;51.078;13.740;2022-12-07T05:22:34;5.90;46.80
14604;DHT22;7388;51.078;13.740;2022-12-07T05:25:01;5.90;46.80
14604;DHT22;7388;51.078;13.740;2022-12-07T05:27:27;5.90;46.70
14604;DHT22;7388;51.078;13.740;2022-12-07T05:29:52;5.90;46.80
14604;DHT22;7388;51.078;13.740;2022-12-07T05:32:18;5.90;47.00
14604;DHT22;7388;51.078;13.740;2022-12-07T05:34:44;5.90;47.10
14604;DHT22;7388;51.078;13.740;2022-12-07T05:37:10;5.90;47.20
14604;DHT22;7388;51.078;13.740;2022-12-07T05:39:35;5.90;47.40
14604;DHT22;7388;51.078;13.740;2022-12-07T05:42:03;5.90;47.40
14604;DHT22;7388;51.078;13.740;2022-12-07T05:44:42;6.00;47.40
14604;DHT22;7388;51.078;13.740;2022-12-07T05:47:08;6.00;47.30
14604;DHT22;7388;51.078;13.740;2022-12-07T05:49:34;6.10;47.40
14604;DHT22;7388;51.078;13.740;2022-12-07T05:52:00;6.10;47.20
14604;DHT22;7388;51.078;13.740;2022-12-07T05:54:26;6.20;47.30
14604;DHT22;7388;51.078;13.740;2022-12-07T05:56:52;6.20;47.30
14604;DHT22;7388;51.078;13.740;2022-12-07T05:59:18;6.20;47.30
14604;DHT22;7388;51.078;13.740;2022-12-07T06:01:50;6.20;47.30
14604;DHT22;7388;51.078;13.740;2022-12-07T06:04:16;6.20;47.20
14604;DHT22;7388;51.078;13.740;2022-12-07T06:06:42;6.30;47.40
14604;DHT22;7388;51.078;13.740;2022-12-07T06:09:08;6.30;47.40
14604;DHT22;7388;51.078;13.740;2022-12-07T06:11:34;6.30;47.20
14604;DHT22;7388;51.078;13.740;2022-12-07T06:14:18;6.40;47.40
14604;DHT22;7388;51.078;13.740;2022-12-07T06:16:44;6.40;47.40
14604;DHT22;7388;51.078;13.740;2022-12-07T06:19:10;6.40;47.40
14604;DHT22;7388;51.078;13.740;2022-12-07T06:21:35;6.50;47.50
14604;DHT22;7388;51.078;13.740;2022-12-07T06:24:01;6.50;47.40
14604;DHT22;7388;51.078;13.740;2022-12-07T06:26:27;6.50;47.40
14604;DHT22;7388;51.078;13.740;2022-12-07T06:28:53;6.60;47.20
14604;DHT22;7388;51.078;13.740;2022-12-07T06:31:19;6.50;47.10
14604;DHT22;7388;51.078;13.740;2022-12-07T06:33:45;6.50;47.10
14604;DHT22;7388;51.078;13.740;2022-12-07T06:36:11;6.50;47.10
14604;DHT22;7388;51.078;13.740;2022-12-07T06:38:37;6.50;47.20
14604;DHT22;7388;51.078;13.740;2022-12-07T06:41:03;6.50;46.80
14604;DHT22;7388;51.078;13.740;2022-12-07T06:43:29;6.40;47.10
14604;DHT22;7388;51.078;13.740;2022-12-07T06:45:55;6.40;47.30
14604;DHT22;7388;51.078;13.740;2022-12-07T06:48:20;6.50;47.90
14604;DHT22;7388;51.078;13.740;2022-12-07T06:50:47;6.50;47.70
14604;DHT22;7388;51.078;13.740;2022-12-07T06:53:13;6.50;47.70
14604;DHT22;7388;51.078;13.740;2022-12-07T06:55:39;6.60;47.70
14604;DHT22;7388;51.078;13.740;2022-12-07T06:58:05;6.70;47.80
14604;DHT22;7388;51.078;13.740;2022-12-07T07:00:31;6.70;47.80
14604;DHT22;7388;51.078;13.740;2022-12-07T07:02:56;6.70;48.00
14604;DHT22;7388;51.078;13.740;2022-12-07T07:05:22;6.70;48.30
14604;DHT22;7388;51.078;13.740;2022-12-07T07:07:49;6.60;48.80
14604;DHT22;7388;51.078;13.740;2022-12-07T07:10:15;6.60;49.10
14604;DHT22;7388;51.078;13.740;2022-12-07T07:12:41;6.50;49.60
14604;DHT22;7388;51.078;13.740;2022-12-07T07:15:07;6.50;49.70
14604;DHT22;7388;51.078;13.740;2022-12-07T07:17:32;6.60;49.50
14604;DHT22;7388;51.078;13.740;2022-12-07T07:19:58;6.70;49.50
14604;DHT22;7388;51.078;13.740;2022-12-07T07:22:24;6.70;49.40
14604;DHT22;7388;51.078;13.740;2022-12-07T07:24:49;6.70;49.60
14604;DHT22;7388;51.078;13.740;2022-12-07T07:27:15;6.70;49.50
14604;DHT22;7388;51.078;13.740;2022-12-07T07:29:41;6.80;49.50
14604;DHT22;7388;51.078;13.740;2022-12-07T07:32:06;6.90;49.40
14604;DHT22;7388;51.078;13.740;2022-12-07T07:34:33;7.00;49.20
14604;DHT22;7388;51.078;13.740;2022-12-07T07:36:59;7.00;49.20
14604;DHT22;7388;51.078;13.740;2022-12-07T07:39:25;7.00;49.10
14604;DHT22;7388;51.078;13.740;2022-12-07T07:41:50;7.00;49.30
14604;DHT22;7388;51.078;13.740;2022-12-07T07:44:16;7.10;49.30
14604;DHT22;7388;51.078;13.740;2022-12-07T07:46:42;7.00;49.50
14604;DHT22;7388;51.078;13.740;2022-12-07T07:49:09;7.00;49.50
14604;DHT22;7388;51.078;13.740;2022-12-07T07:51:36;7.00;49.60
14604;DHT22;7388;51.078;13.740;2022-12-07T07:54:02;7.00;49.60
14604;DHT22;7388;51.078;13.740;2022-12-07T07:56:27;7.10;49.60
14604;DHT22;7388;51.078;13.740;2022-12-07T07:58:54;7.10;49.60
14604;DHT22;7388;51.078;13.740;2022-12-07T08:01:20;7.10;49.70
14604;DHT22;7388;51.078;13.740;2022-12-07T08:03:47;7.10;49.80
14604;DHT22;7388;51.078;13.740;2022-12-07T08:06:13;7.20;49.80
14604;DHT22;7388;51.078;13.740;2022-12-07T08:08:38;7.10;50.10
14604;DHT22;7388;51.078;13.740;2022-12-07T08:11:08;7.20;50.00
14604;DHT22;7388;51.078;13.740;2022-12-07T08:13:34;7.30;49.90
14604;DHT22;7388;51.078;13.740;2022-12-07T08:16:04;7.30;49.80
14604;DHT22;7388;51.078;13.740;2022-12-07T08:18:30;7.40;49.80
14604;DHT22;7388;51.078;13.740;2022-12-07T08:21:00;7.40;49.80
14604;DHT22;7388;51.078;13.740;2022-12-07T08:23:26;7.50;49.80
14604;DHT22;7388;51.078;13.740;2022-12-07T08:25:52;7.50;49.70
14604;DHT22;7388;51.078;13.740;2022-12-07T08:28:18;7.50;49.80
14604;DHT22;7388;51.078;13.740;2022-12-07T08:30:44;7.50;49.80
14604;DHT22;7388;51.078;13.740;2022-12-07T08:33:10;7.60;49.70
14604;DHT22;7388;51.078;13.740;2022-12-07T08:35:36;7.60;49.30
14604;DHT22;7388;51.078;13.740;2022-12-07T08:38:03;7.60;49.40
14604;DHT22;7388;51.078;13.740;2022-12-07T08:40:29;7.60;49.60
14604;DHT22;7388;51.078;13.740;2022-12-07T08:42:55;7.70;50.10
14604;DHT22;7388;51.078;13.740;2022-12-07T08:45:21;7.80;49.10
14604;DHT22;7388;51.078;13.740;2022-12-07T08:47:59;7.80;49.10
14604;DHT22;7388;51.078;13.740;2022-12-07T08:50:26;7.90;49.20
14604;DHT22;7388;51.078;13.740;2022-12-07T08:52:54;7.80;49.10
14604;DHT22;7388;51.078;13.740;2022-12-07T08:55:20;7.90;49.00
14604;DHT22;7388;51.078;13.740;2022-12-07T08:57:47;8.10;49.00
14604;DHT22;7388;51.078;13.740;2022-12-07T09:00:13;8.20;49.10
14604;DHT22;7388;51.078;13.740;2022-12-07T09:12:44;7.90;48.80
14604;DHT22;7388;51.078;13.740;2022-12-07T09:15:10;8.00;49.10
14604;DHT22;7388;51.078;13.740;2022-12-07T09:17:36;8.00;48.90
14604;DHT22;7388;51.078;13.740;2022-12-07T09:20:04;8.00;48.60
14604;DHT22;7388;51.078;13.740;2022-12-07T09:22:31;8.10;48.90
14604;DHT22;7388;51.078;13.740;2022-12-07T09:25:00;8.10;48.90
14604;DHT22;7388;51.078;13.740;2022-12-07T09:27:26;8.40;48.90
14604;DHT22;7388;51.078;13.740;2022-12-07T09:29:52;8.60;47.80
14604;DHT22;7388;51.078;13.740;2022-12-07T09:32:17;8.70;47.10
14604;DHT22;7388;51.078;13.740;2022-12-07T09:34:43;8.70;46.70
14604;DHT22;7388;51.078;13.740;2022-12-07T09:37:09;8.50;46.60
14604;DHT22;7388;51.078;13.740;2022-12-07T09:39:38;8.50;47.30
14604;DHT22;7388;51.078;13.740;2022-12-07T09:42:05;8.30;46.00
14604;DHT22;7388;51.078;13.740;2022-12-07T09:44:33;8.20;47.20
14604;DHT22;7388;51.078;13.740;2022-12-07T09:46:59;8.40;47.50
14604;DHT22;7388;51.078;13.740;2022-12-07T09:49:28;8.50;47.20
14604;DHT22;7388;51.078;13.740;2022-12-07T09:54:36;8.80;46.10
14604;DHT22;7388;51.078;13.740;2022-12-07T09:57:03;9.30;46.40
14604;DHT22;7388;51.078;13.740;2022-12-07T09:59:29;9.80;45.30
14604;DHT22;7388;51.078;13.740;2022-12-07T10:01:55;9.80;44.50
14604;DHT22;7388;51.078;13.740;2022-12-07T10:04:23;10.00;42.90
14604;DHT22;7388;51.078;13.740;2022-12-07T10:06:50;10.70;43.00
14604;DHT22;7388;51.078;13.740;2022-12-07T10:09:19;10.90;41.20
14604;DHT22;7388;51.078;13.740;2022-12-07T10:12:07;11.10;39.90
14604;DHT22;7388;51.078;13.740;2022-12-07T10:14:39;11.10;40.20
14604;DHT22;7388;51.078;13.740;2022-12-07T10:20:21;11.60;39.70
14604;DHT22;7388;51.078;13.740;2022-12-07T10:23:02;11.70;38.60
14604;DHT22;7388;51.078;13.740;2022-12-07T10:25:36;11.80;40.20
14604;DHT22;7388;51.078;13.740;2022-12-07T10:28:15;12.00;39.00
14604;DHT22;7388;51.078;13.740;2022-12-07T10:35:56;10.60;40.00
14604;DHT22;7388;51.078;13.740;2022-12-07T10:38:25;10.30;41.30
14604;DHT22;7388;51.078;13.740;2022-12-07T10:41:06;10.10;41.70
14604;DHT22;7388;51.078;13.740;2022-12-07T10:43:32;9.80;41.70
14604;DHT22;7388;51.078;13.740;2022-12-07T10:54:53;9.30;44.50
14604;DHT22;7388;51.078;13.740;2022-12-07T11:03:04;9.20;45.20
14604;DHT22;7388;51.078;13.740;2022-12-07T11:08:57;9.50;45.40
14604;DHT22;7388;51.078;13.740;2022-12-07T11:12:11;9.00;45.00
14604;DHT22;7388;51.078;13.740;2022-12-07T11:14:36;9.10;45.30
14604;DHT22;7388;51.078;13.740;2022-12-07T11:22:51;9.20;44.80
14604;DHT22;7388;51.078;13.740;2022-12-07T11:36:50;9.10;46.00
14604;DHT22;7388;51.078;13.740;2022-12-07T11:39:28;8.90;46.50
14604;DHT22;7388;51.078;13.740;2022-12-07T11:42:01;8.80;47.70
14604;DHT22;7388;51.078;13.740;2022-12-07T11:47:16;8.40;48.90
14604;DHT22;7388;51.078;13.740;2022-12-07T11:53:19;8.60;48.40
14604;DHT22;7388;51.078;13.740;2022-12-07T12:01:03;8.90;47.80
14604;DHT22;7388;51.078;13.740;2022-12-07T12:03:34;9.00;47.70
14604;DHT22;7388;51.078;13.740;2022-12-07T12:06:01;8.90;47.70
14604;DHT22;7388;51.078;13.740;2022-12-07T12:08:27;9.00;47.70
14604;DHT22;7388;51.078;13.740;2022-12-07T12:13:44;9.00;47.90
14604;DHT22;7388;51.078;13.740;2022-12-07T12:19:00;9.20;48.40
14604;DHT22;7388;51.078;13.740;2022-12-07T12:21:30;9.30;48.40
14604;DHT22;7388;51.078;13.740;2022-12-07T12:24:00;9.30;48.30
14604;DHT22;7388;51.078;13.740;2022-12-07T12:26:31;9.40;48.00
14604;DHT22;7388;51.078;13.740;2022-12-07T12:29:02;9.40;48.30
14604;DHT22;7388;51.078;13.740;2022-12-07T12:31:34;9.40;48.20
14604;DHT22;7388;51.078;13.740;2022-12-07T12:34:04;9.40;48.20
14604;DHT22;7388;51.078;13.740;2022-12-07T12:47:00;9.30;48.10
14604;DHT22;7388;51.078;13.740;2022-12-07T12:49:34;9.30;48.30
14604;DHT22;7388;51.078;13.740;2022-12-07T12:55:11;9.10;47.60
14604;DHT22;7388;51.078;13.740;2022-12-07T12:57:38;8.90;47.30
14604;DHT22;7388;51.078;13.740;2022-12-07T13:02:37;8.80;48.10
14604;DHT22;7388;51.078;13.740;2022-12-07T13:05:31;8.90;47.70
14604;DHT22;7388;51.078;13.740;2022-12-07T13:08:03;8.50;47.80
14604;DHT22;7388;51.078;13.740;2022-12-07T13:10:44;8.10;48.70
14604;DHT22;7388;51.078;13.740;2022-12-07T13:13:28;8.20;48.70
14604;DHT22;7388;51.078;13.740;2022-12-07T13:21:00;8.00;48.40
14604;DHT22;7388;51.078;13.740;2022-12-07T13:26:21;7.90;48.80
14604;DHT22;7388;51.078;13.740;2022-12-07T13:29:03;7.90;49.10
14604;DHT22;7388;51.078;13.740;2022-12-07T13:31:45;7.80;49.30
14604;DHT22;7388;51.078;13.740;2022-12-07T13:34:34;7.80;49.40
14604;DHT22;7388;51.078;13.740;2022-12-07T13:37:11;7.80;49.40
14604;DHT22;7388;51.078;13.740;2022-12-07T13:39:47;7.80;49.60
14604;DHT22;7388;51.078;13.740;2022-12-07T13:42:22;7.80;49.30
14604;DHT22;7388;51.078;13.740;2022-12-07T13:44:49;7.80;49.60
14604;DHT22;7388;51.078;13.740;2022-12-07T13:47:44;7.90;49.50
14604;DHT22;7388;51.078;13.740;2022-12-07T13:50:32;8.00;49.50
14604;DHT22;7388;51.078;13.740;2022-12-07T13:52:59;7.90;49.30
14604;DHT22;7388;51.078;13.740;2022-12-07T13:55:26;7.90;49.60
14604;DHT22;7388;51.078;13.740;2022-12-07T13:57:53;7.90;50.00
14604;DHT22;7388;51.078;13.740;2022-12-07T14:00:22;7.90;49.80
14604;DHT22;7388;51.078;13.740;2022-12-07T14:02:59;7.90;50.10
14604;DHT22;7388;51.078;13.740;2022-12-07T14:05:28;7.90;49.90
14604;DHT22;7388;51.078;13.740;2022-12-07T14:07:59;8.00;49.90
14604;DHT22;7388;51.078;13.740;2022-12-07T14:10:29;8.10;49.80
14604;DHT22;7388;51.078;13.740;2022-12-07T14:12:57;8.10;49.80
14604;DHT22;7388;51.078;13.740;2022-12-07T14:15:34;8.10;49.60
14604;DHT22;7388;51.078;13.740;2022-12-07T14:18:02;8.20;49.50
14604;DHT22;7388;51.078;13.740;2022-12-07T14:20:34;8.30;49.30
14604;DHT22;7388;51.078;13.740;2022-12-07T14:23:02;8.40;49.20
14604;DHT22;7388;51.078;13.740;2022-12-07T14:26:03;8.40;49.20
14604;DHT22;7388;51.078;13.740;2022-12-07T14:28:31;8.50;49.10
14604;DHT22;7388;51.078;13.740;2022-12-07T14:30:58;8.60;49.10
14604;DHT22;7388;51.078;13.740;2022-12-07T14:33:24;8.60;49.00
14604;DHT22;7388;51.078;13.740;2022-12-07T14:35:50;8.60;49.00
14604;DHT22;7388;51.078;13.740;2022-12-07T14:38:23;8.60;48.90
14604;DHT22;7388;51.078;13.740;2022-12-07T14:40:51;8.70;48.90
14604;DHT22;7388;51.078;13.740;2022-12-07T14:43:18;8.60;48.80
14604;DHT22;7388;51.078;13.740;2022-12-07T14:45:44;8.70;48.90
14604;DHT22;7388;51.078;13.740;2022-12-07T14:48:12;8.70;48.90
14604;DHT22;7388;51.078;13.740;2022-12-07T14:50:41;8.70;48.80
14604;DHT22;7388;51.078;13.740;2022-12-07T14:53:16;8.80;48.70
14604;DHT22;7388;51.078;13.740;2022-12-07T14:55:42;8.80;48.60
14604;DHT22;7388;51.078;13.740;2022-12-07T14:58:16;8.70;48.60
14604;DHT22;7388;51.078;13.740;2022-12-07T15:00:42;8.80;48.40
14604;DHT22;7388;51.078;13.740;2022-12-07T15:03:08;8.80;48.40
14604;DHT22;7388;51.078;13.740;2022-12-07T15:05:35;8.80;48.40
14604;DHT22;7388;51.078;13.740;2022-12-07T15:08:01;8.80;48.50
14604;DHT22;7388;51.078;13.740;2022-12-07T15:10:29;8.80;48.40
14604;DHT22;7388;51.078;13.740;2022-12-07T15:13:01;8.80;48.30
14604;DHT22;7388;51.078;13.740;2022-12-07T15:15:48;8.80;48.30
14604;DHT22;7388;51.078;13.740;2022-12-07T15:18:14;8.70;48.50
14604;DHT22;7388;51.078;13.740;2022-12-07T15:20:41;8.70;48.60
14604;DHT22;7388;51.078;13.740;2022-12-07T15:23:07;8.60;48.40
14604;DHT22;7388;51.078;13.740;2022-12-07T15:25:33;8.70;48.60
14604;DHT22;7388;51.078;13.740;2022-12-07T15:27:58;8.60;48.50
14604;DHT22;7388;51.078;13.740;2022-12-07T15:30:24;8.60;48.50
14604;DHT22;7388;51.078;13.740;2022-12-07T15:32:51;8.70;48.50
14604;DHT22;7388;51.078;13.740;2022-12-07T15:35:17;8.60;48.50
14604;DHT22;7388;51.078;13.740;2022-12-07T15:37:43;8.70;48.50
14604;DHT22;7388;51.078;13.740;2022-12-07T15:40:09;8.70;48.60
14604;DHT22;7388;51.078;13.740;2022-12-07T15:42:35;8.70;48.60
14604;DHT22;7388;51.078;13.740;2022-12-07T15:45:02;8.70;48.60
14604;DHT22;7388;51.078;13.740;2022-12-07T15:47:35;8.70;48.10
14604;DHT22;7388;51.078;13.740;2022-12-07T15:50:03;8.60;48.30
14604;DHT22;7388;51.078;13.740;2022-12-07T15:52:29;8.50;48.60
14604;DHT22;7388;51.078;13.740;2022-12-07T15:54:55;8.50;48.60
14604;DHT22;7388;51.078;13.740;2022-12-07T15:57:21;8.50;48.70
14604;DHT22;7388;51.078;13.740;2022-12-07T15:59:47;8.50;48.60
14604;DHT22;7388;51.078;13.740;2022-12-07T16:02:13;8.50;48.50
14604;DHT22;7388;51.078;13.740;2022-12-07T16:04:38;8.50;48.50
14604;DHT22;7388;51.078;13.740;2022-12-07T16:07:04;8.50;48.50
14604;DHT22;7388;51.078;13.740;2022-12-07T16:09:31;8.50;48.40
14604;DHT22;7388;51.078;13.740;2022-12-07T16:11:56;8.50;48.30
14604;DHT22;7388;51.078;13.740;2022-12-07T16:14:22;8.40;48.20
14604;DHT22;7388;51.078;13.740;2022-12-07T16:16:49;8.40;48.30
14604;DHT22;7388;51.078;13.740;2022-12-07T16:19:15;8.40;48.20
14604;DHT22;7388;51.078;13.740;2022-12-07T16:21:40;8.40;48.20
14604;DHT22;7388;51.078;13.740;2022-12-07T16:24:08;8.40;48.30
14604;DHT22;7388;51.078;13.740;2022-12-07T16:26:33;8.40;48.30
14604;DHT22;7388;51.078;13.740;2022-12-07T16:28:59;8.40;48.30
14604;DHT22;7388;51.078;13.740;2022-12-07T16:31:26;8.40;48.30
14604;DHT22;7388;51.078;13.740;2022-12-07T16:33:54;8.40;48.90
14604;DHT22;7388;51.078;13.740;2022-12-07T16:36:21;8.40;48.20
14604;DHT22;7388;51.078;13.740;2022-12-07T16:38:48;8.40;48.20
14604;DHT22;7388;51.078;13.740;2022-12-07T16:41:14;8.40;48.20
14604;DHT22;7388;51.078;13.740;2022-12-07T16:43:40;8.40;48.20
14604;DHT22;7388;51.078;13.740;2022-12-07T16:46:06;8.40;48.20
14604;DHT22;7388;51.078;13.740;2022-12-07T16:48:36;8.40;48.10
14604;DHT22;7388;51.078;13.740;2022-12-07T16:51:06;8.40;48.20
14604;DHT22;7388;51.078;13.740;2022-12-07T16:53:34;8.30;47.60
14604;DHT22;7388;51.078;13.740;2022-12-07T16:56:00;8.30;47.90
14604;DHT22;7388;51.078;13.740;2022-12-07T16:58:26;8.30;47.60
14604;DHT22;7388;51.078;13.740;2022-12-07T17:00:51;8.30;47.80
14604;DHT22;7388;51.078;13.740;2022-12-07T17:03:17;8.20;47.50
14604;DHT22;7388;51.078;13.740;2022-12-07T17:05:45;8.20;47.70
14604;DHT22;7388;51.078;13.740;2022-12-07T17:08:11;8.20;47.80
14604;DHT22;7388;51.078;13.740;2022-12-07T17:10:40;8.20;47.70
14604;DHT22;7388;51.078;13.740;2022-12-07T17:13:07;8.20;47.40
14604;DHT22;7388;51.078;13.740;2022-12-07T17:16:17;8.20;47.20
14604;DHT22;7388;51.078;13.740;2022-12-07T17:18:43;8.20;47.30
14604;DHT22;7388;51.078;13.740;2022-12-07T17:21:09;8.10;46.80
14604;DHT22;7388;51.078;13.740;2022-12-07T17:23:36;8.20;47.50
14604;DHT22;7388;51.078;13.740;2022-12-07T17:26:10;8.20;47.30
14604;DHT22;7388;51.078;13.740;2022-12-07T17:28:36;8.20;46.90
14604;DHT22;7388;51.078;13.740;2022-12-07T17:31:07;8.20;47.00
14604;DHT22;7388;51.078;13.740;2022-12-07T17:33:35;8.20;47.00
14604;DHT22;7388;51.078;13.740;2022-12-07T17:36:01;8.10;46.80
14604;DHT22;7388;51.078;13.740;2022-12-07T17:38:34;8.10;47.10
14604;DHT22;7388;51.078;13.740;2022-12-07T17:40:59;8.20;46.90
14604;DHT22;7388;51.078;13.740;2022-12-07T17:43:25;8.20;46.80
14604;DHT22;7388;51.078;13.740;2022-12-07T17:45:51;8.20;46.70
14604;DHT22;7388;51.078;13.740;2022-12-07T17:48:16;8.10;46.50
14604;DHT22;7388;51.078;13.740;2022-12-07T17:50:42;8.20;46.90
14604;DHT22;7388;51.078;13.740;2022-12-07T17:53:27;8.20;46.70
14604;DHT22;7388;51.078;13.740;2022-12-07T17:55:54;8.10;46.70
14604;DHT22;7388;51.078;13.740;2022-12-07T17:58:20;8.10;46.90
14604;DHT22;7388;51.078;13.740;2022-12-07T18:00:46;8.20;46.60
14604;DHT22;7388;51.078;13.740;2022-12-07T18:03:11;8.10;46.70
14604;DHT22;7388;51.078;13.740;2022-12-07T18:05:38;8.10;46.90
14604;DHT22;7388;51.078;13.740;2022-12-07T18:08:04;8.20;46.80
14604;DHT22;7388;51.078;13.740;2022-12-07T18:10:30;8.20;46.80